createdAt,value
2019-05-25T00:01:06.533Z,4.60
2019-05-25T00:03:36.476Z,3.60
2019-05-25T00:06:05.253Z,3.92
2019-05-25T00:08:33.944Z,3.95
2019-05-25T00:11:02.660Z,4.10
2019-05-25T00:13:31.394Z,4.08
2019-05-25T00:16:00.131Z,4.15
2019-05-25T00:18:28.828Z,4.03
2019-05-25T00:20:57.450Z,3.62
2019-05-25T00:23:26.219Z,3.70
2019-05-25T00:25:54.934Z,3.72
2019-05-25T00:28:23.624Z,3.60
2019-05-25T00:30:52.335Z,3.40
2019-05-25T00:33:21.074Z,4.00
2019-05-25T00:35:49.615Z,3.35
2019-05-25T00:38:18.246Z,3.58
2019-05-25T00:40:46.941Z,3.72
2019-05-25T00:43:15.526Z,3.27
2019-05-25T00:45:44.363Z,3.60
2019-05-25T00:48:13.009Z,3.02
2019-05-25T00:50:42.202Z,3.80
2019-05-25T00:53:11.994Z,3.65
2019-05-25T00:55:40.692Z,3.37
2019-05-25T00:58:09.402Z,3.00
2019-05-25T01:00:38.049Z,2.87
2019-05-25T01:03:06.862Z,3.02
2019-05-25T01:05:35.587Z,2.83
2019-05-25T01:08:04.153Z,3.08
2019-05-25T01:10:32.937Z,2.90
2019-05-25T01:13:01.857Z,3.10
2019-05-25T01:15:30.563Z,3.40
2019-05-25T01:17:59.269Z,3.00
2019-05-25T01:20:28.268Z,3.65
2019-05-25T01:22:56.852Z,3.83
2019-05-25T01:25:25.521Z,3.70
2019-05-25T01:27:54.238Z,2.98
2019-05-25T01:30:23.062Z,3.75
2019-05-25T01:32:51.762Z,3.98
2019-05-25T01:35:20.371Z,3.58
2019-05-25T01:37:49.242Z,3.92
2019-05-25T01:40:18.259Z,3.33
2019-05-25T01:42:46.912Z,3.65
2019-05-25T01:45:15.762Z,3.08
2019-05-25T01:47:44.417Z,3.45
2019-05-25T01:50:13.241Z,3.10
2019-05-25T01:52:41.922Z,2.98
2019-05-25T01:55:10.719Z,2.95
2019-05-25T01:57:39.382Z,3.08
2019-05-25T02:00:10.796Z,2.80
2019-05-25T02:02:39.540Z,2.58
2019-05-25T02:05:08.546Z,3.22
2019-05-25T02:07:37.249Z,3.33
2019-05-25T02:10:07.925Z,3.08
2019-05-25T02:12:36.516Z,2.93
2019-05-25T02:15:10.051Z,2.62
2019-05-25T02:17:38.783Z,3.50
2019-05-25T02:20:08.169Z,3.27
2019-05-25T02:22:36.905Z,2.83
2019-05-25T02:25:16.889Z,3.27
2019-05-25T02:27:40.781Z,3.02
2019-05-25T02:30:11.761Z,2.90
2019-05-25T02:32:40.611Z,3.22
2019-05-25T02:35:11.163Z,3.00
2019-05-25T02:37:41.127Z,2.72
2019-05-25T02:40:09.988Z,2.80
2019-05-25T02:42:38.605Z,2.95
2019-05-25T02:45:07.432Z,2.77
2019-05-25T02:47:35.958Z,3.17
2019-05-25T02:50:06.701Z,3.15
2019-05-25T02:52:35.299Z,2.60
2019-05-25T02:55:04.223Z,2.67
2019-05-25T02:57:32.895Z,2.70
2019-05-25T03:00:01.445Z,2.62
2019-05-25T03:02:30.138Z,2.40
2019-05-25T03:04:58.745Z,2.72
2019-05-25T03:07:29.965Z,2.67
2019-05-25T03:10:03.376Z,3.00
2019-05-25T03:12:32.476Z,3.17
2019-05-25T03:15:01.302Z,3.10
2019-05-25T03:17:30.117Z,3.00
2019-05-25T03:19:58.823Z,3.77
2019-05-25T03:22:27.858Z,3.20
2019-05-25T03:24:56.773Z,2.67
2019-05-25T03:27:25.641Z,3.10
2019-05-25T03:29:54.653Z,3.25
2019-05-25T03:32:23.733Z,3.15
2019-05-25T03:34:54.151Z,3.00
2019-05-25T03:37:23.419Z,2.92
2019-05-25T03:39:52.320Z,3.00
2019-05-25T03:42:21.850Z,2.95
2019-05-25T03:44:51.081Z,2.85
2019-05-25T03:47:20.054Z,2.95
2019-05-25T03:49:49.171Z,2.60
2019-05-25T03:52:18.271Z,2.40
2019-05-25T03:54:47.478Z,2.77
2019-05-25T03:57:16.557Z,2.40
2019-05-25T03:59:45.952Z,3.00
2019-05-25T04:02:15.113Z,2.80
2019-05-25T04:04:44.103Z,2.80
2019-05-25T04:07:13.292Z,2.98
2019-05-25T04:09:42.307Z,2.92
2019-05-25T04:12:11.522Z,2.90
2019-05-25T04:14:40.645Z,3.00
2019-05-25T04:17:12.721Z,2.70
2019-05-25T04:19:41.851Z,2.52
2019-05-25T04:22:11.053Z,2.60
2019-05-25T04:24:40.213Z,2.60
2019-05-25T04:27:09.321Z,2.77
2019-05-25T04:29:39.780Z,2.52
2019-05-25T04:32:08.828Z,2.85
2019-05-25T04:34:37.888Z,3.08
2019-05-25T04:37:06.968Z,3.05
2019-05-25T04:39:35.996Z,3.33
2019-05-25T04:42:05.424Z,3.20
2019-05-25T04:44:35.919Z,3.55
2019-05-25T04:47:05.237Z,4.67
2019-05-25T04:49:34.138Z,3.80
2019-05-25T04:52:03.365Z,4.37
2019-05-25T04:54:32.336Z,4.00
2019-05-25T04:57:01.529Z,3.75
2019-05-25T04:59:30.631Z,5.25
2019-05-25T05:01:59.692Z,5.58
2019-05-25T05:04:28.912Z,5.80
2019-05-25T05:06:57.929Z,4.97
2019-05-25T05:09:26.962Z,3.62
2019-05-25T05:11:56.022Z,3.75
2019-05-25T05:14:25.136Z,4.42
2019-05-25T05:16:54.295Z,3.67
2019-05-25T05:19:23.530Z,4.47
2019-05-25T05:21:52.730Z,4.58
2019-05-25T05:24:22.146Z,4.95
2019-05-25T05:26:55.817Z,5.92
2019-05-25T05:29:21.883Z,4.70
2019-05-25T05:31:52.146Z,4.50
2019-05-25T05:34:21.392Z,5.65
2019-05-25T05:36:51.936Z,5.20
2019-05-25T05:39:22.483Z,4.83
2019-05-25T05:41:53.764Z,7.53
2019-05-25T05:44:24.682Z,5.70
2019-05-25T05:46:55.868Z,6.70
2019-05-25T05:49:25.841Z,6.75
2019-05-25T05:51:57.721Z,5.45
2019-05-25T05:54:27.391Z,6.03
2019-05-25T05:57:11.077Z,6.40
2019-05-25T05:59:27.058Z,6.70
2019-05-25T06:01:55.997Z,6.20
2019-05-25T06:04:25.109Z,6.90
2019-05-25T06:06:54.170Z,6.20
2019-05-25T06:09:23.299Z,7.62
2019-05-25T06:11:52.400Z,6.33
2019-05-25T06:14:21.588Z,4.33
2019-05-25T06:16:52.287Z,5.37
2019-05-25T06:19:21.368Z,5.37
2019-05-25T06:21:50.560Z,5.17
2019-05-25T06:24:19.747Z,6.67
2019-05-25T06:26:48.674Z,6.17
2019-05-25T06:29:17.747Z,6.87
2019-05-25T06:31:46.849Z,5.60
2019-05-25T06:34:16.045Z,4.62
2019-05-25T06:36:46.046Z,4.67
2019-05-25T06:39:15.243Z,3.87
2019-05-25T06:41:44.393Z,4.47
2019-05-25T06:44:13.729Z,4.03
2019-05-25T06:46:42.563Z,3.62
2019-05-25T06:49:14.254Z,3.67
2019-05-25T06:51:43.398Z,6.10
2019-05-25T06:54:13.249Z,4.03
2019-05-25T06:56:42.472Z,4.90
2019-05-25T06:59:11.539Z,3.25
2019-05-25T07:01:42.205Z,3.08
2019-05-25T07:04:11.515Z,2.93
2019-05-25T07:06:40.569Z,3.40
2019-05-25T07:09:09.989Z,2.75
2019-05-25T07:11:39.108Z,3.17
2019-05-25T07:14:08.500Z,3.08
2019-05-25T07:16:37.692Z,3.20
2019-05-25T07:19:06.750Z,3.00
2019-05-25T07:21:36.107Z,3.07
2019-05-25T07:24:05.191Z,3.87
2019-05-25T07:26:34.268Z,3.45
2019-05-25T07:29:03.339Z,3.10
2019-05-25T07:31:32.332Z,3.98
2019-05-25T07:34:01.361Z,3.40
2019-05-25T07:36:30.327Z,4.08
2019-05-25T07:38:59.362Z,3.37
2019-05-25T07:41:30.099Z,3.47
2019-05-25T07:43:59.001Z,3.15
2019-05-25T07:46:28.097Z,3.10
2019-05-25T07:48:57.038Z,3.05
2019-05-25T07:51:26.132Z,3.47
2019-05-25T07:53:55.321Z,3.30
2019-05-25T07:56:24.540Z,2.95
2019-05-25T07:58:53.605Z,2.90
2019-05-25T08:01:22.835Z,2.90
2019-05-25T08:03:52.163Z,2.75
2019-05-25T08:06:21.480Z,2.52
2019-05-25T08:08:51.978Z,3.15
2019-05-25T08:11:21.081Z,2.33
2019-05-25T08:13:50.155Z,4.17
2019-05-25T08:16:19.190Z,4.40
2019-05-25T08:18:48.443Z,3.20
2019-05-25T08:21:18.553Z,3.00
2019-05-25T08:23:47.661Z,2.87
2019-05-25T08:26:16.619Z,3.67
2019-05-25T08:28:45.818Z,4.55
2019-05-25T08:31:14.940Z,2.98
2019-05-25T08:33:44.139Z,3.40
2019-05-25T08:36:13.310Z,3.52
2019-05-25T08:38:42.713Z,2.85
2019-05-25T08:41:13.249Z,2.85
2019-05-25T08:43:42.316Z,3.45
2019-05-25T08:46:11.480Z,2.60
2019-05-25T08:48:40.482Z,2.27
2019-05-25T08:51:09.711Z,2.65
2019-05-25T08:53:41.794Z,1.95
2019-05-25T08:56:11.000Z,2.10
2019-05-25T08:58:48.484Z,1.85
2019-05-25T09:01:10.980Z,2.20
2019-05-25T09:03:40.166Z,1.85
2019-05-25T09:06:09.209Z,1.70
2019-05-25T09:08:38.367Z,1.72
2019-05-25T09:11:07.640Z,1.70
2019-05-25T09:13:36.877Z,1.50
2019-05-25T09:16:06.263Z,1.60
2019-05-25T09:18:35.610Z,1.57
2019-05-25T09:21:04.656Z,1.60
2019-05-25T09:23:34.012Z,1.47
2019-05-25T09:26:04.561Z,1.50
2019-05-25T09:28:33.616Z,1.35
2019-05-25T09:31:02.784Z,1.45
2019-05-25T09:33:32.321Z,1.30
2019-05-25T09:36:01.722Z,1.80
2019-05-25T09:38:30.853Z,1.50
2019-05-25T09:41:00.096Z,1.40
2019-05-25T09:43:29.152Z,1.40
2019-05-25T09:45:58.390Z,1.50
2019-05-25T09:48:27.538Z,1.57
2019-05-25T09:50:56.677Z,1.40
2019-05-25T09:53:25.983Z,1.72
2019-05-25T09:55:56.786Z,2.62
2019-05-25T09:58:25.880Z,2.62
2019-05-25T10:00:55.090Z,3.27
2019-05-25T10:03:25.105Z,1.67
2019-05-25T10:05:55.664Z,2.30
2019-05-25T10:08:24.793Z,2.25
2019-05-25T10:10:53.823Z,3.25
2019-05-25T10:13:23.986Z,3.08
2019-05-25T10:15:53.207Z,2.00
2019-05-25T10:18:22.115Z,3.33
2019-05-25T10:20:51.267Z,2.60
2019-05-25T10:23:20.240Z,2.17
2019-05-25T10:25:49.554Z,1.82
2019-05-25T10:28:19.557Z,2.00
2019-05-25T10:30:48.659Z,5.83
2019-05-25T10:33:21.173Z,1.90
2019-05-25T10:38:16.836Z,1.30
2019-05-25T10:40:46.023Z,1.07
2019-05-25T10:43:15.163Z,1.80
2019-05-25T10:45:44.306Z,2.00
2019-05-25T10:48:13.622Z,1.60
2019-05-25T10:50:43.074Z,1.30
2019-05-25T10:53:13.325Z,1.20
2019-05-25T10:55:42.376Z,1.10
2019-05-25T10:58:11.628Z,1.17
2019-05-25T11:00:40.949Z,1.40
2019-05-25T11:03:10.152Z,1.42
2019-05-25T11:05:40.140Z,1.35
2019-05-25T11:08:09.535Z,1.40
2019-05-25T11:10:38.877Z,1.20
2019-05-25T11:13:07.919Z,1.10
2019-05-25T11:15:37.601Z,1.10
2019-05-25T11:18:06.820Z,1.40
2019-05-25T11:20:35.912Z,1.40
2019-05-25T11:23:05.166Z,1.20
2019-05-25T11:25:34.146Z,1.37
2019-05-25T11:28:03.269Z,1.57
2019-05-25T11:30:32.520Z,1.27
2019-05-25T11:33:02.399Z,1.12
2019-05-25T11:35:31.872Z,1.35
2019-05-25T11:38:01.088Z,1.40
2019-05-25T11:40:30.239Z,1.12
2019-05-25T11:43:00.341Z,3.00
2019-05-25T11:45:37.074Z,1.40
2019-05-25T11:48:08.299Z,1.57
2019-05-25T11:50:37.699Z,1.70
2019-05-25T11:53:08.425Z,1.40
2019-05-25T11:55:37.834Z,1.40
2019-05-25T11:58:06.935Z,1.22
2019-05-25T12:00:36.339Z,1.30
2019-05-25T12:03:05.650Z,1.40
2019-05-25T12:05:36.798Z,1.30
2019-05-25T12:10:34.381Z,2.60
2019-05-25T12:13:03.712Z,2.22
2019-05-25T12:15:32.830Z,2.10
2019-05-25T12:18:04.233Z,1.10
2019-05-25T12:20:33.480Z,1.22
2019-05-25T12:23:02.874Z,1.30
2019-05-25T12:25:32.434Z,1.25
2019-05-25T12:28:01.662Z,1.00
2019-05-25T12:30:40.398Z,1.17
2019-05-25T12:33:01.930Z,0.90
2019-05-25T12:35:31.121Z,1.00
2019-05-25T12:38:00.120Z,1.10
2019-05-25T12:40:30.296Z,0.93
2019-05-25T12:42:59.526Z,1.05
2019-05-25T12:45:28.641Z,0.82
2019-05-25T12:47:57.888Z,1.15
2019-05-25T12:52:56.917Z,0.98
2019-05-25T12:55:25.984Z,1.15
2019-05-25T12:57:55.125Z,1.25
2019-05-25T13:00:24.238Z,1.10
2019-05-25T13:02:53.476Z,2.20
2019-05-25T13:05:33.492Z,2.33
2019-05-25T13:07:53.397Z,1.95
2019-05-25T13:10:22.418Z,1.98
2019-05-25T13:12:51.496Z,1.80
2019-05-25T13:15:20.721Z,1.55
2019-05-25T13:17:49.769Z,1.35
2019-05-25T13:20:19.236Z,1.17
2019-05-25T13:22:48.431Z,1.20
2019-05-25T13:25:17.890Z,1.15
2019-05-25T13:27:47.095Z,0.95
2019-05-25T13:30:16.837Z,0.80
2019-05-25T13:32:47.104Z,0.62
2019-05-25T13:35:16.576Z,0.60
2019-05-25T13:37:45.776Z,0.80
2019-05-25T13:40:15.172Z,1.02
2019-05-25T13:42:44.284Z,1.27
2019-05-25T13:45:13.419Z,1.30
2019-05-25T13:47:42.463Z,1.10
2019-05-25T13:50:13.932Z,1.00
2019-05-25T13:52:43.078Z,0.90
2019-05-25T13:55:12.257Z,0.75
2019-05-25T13:57:41.473Z,0.95
2019-05-25T14:00:11.961Z,0.90
2019-05-25T14:02:41.168Z,0.80
2019-05-25T14:05:10.449Z,1.42
2019-05-25T14:07:39.999Z,1.95
2019-05-25T14:10:09.537Z,1.35
2019-05-25T14:12:38.736Z,1.27
2019-05-25T14:15:08.609Z,1.00
2019-05-25T14:17:37.943Z,1.12
2019-05-25T14:20:07.494Z,1.47
2019-05-25T14:22:36.518Z,1.30
2019-05-25T14:25:07.514Z,1.27
2019-05-25T14:27:36.561Z,1.30
2019-05-25T14:30:07.650Z,1.72
2019-05-25T14:32:37.007Z,1.37
2019-05-25T14:35:06.678Z,1.30
2019-05-25T14:37:35.684Z,1.40
2019-05-25T14:40:06.913Z,1.40
2019-05-25T14:42:36.019Z,1.12
2019-05-25T14:45:08.868Z,1.10
2019-05-25T14:47:37.794Z,1.15
2019-05-25T14:50:11.556Z,1.10
2019-05-25T14:52:43.264Z,1.00
2019-05-25T14:55:11.662Z,1.10
2019-05-25T14:57:40.964Z,1.00
2019-05-25T15:00:13.026Z,0.90
2019-05-25T15:02:42.363Z,0.78
2019-05-25T15:05:11.562Z,0.53
2019-05-25T15:07:40.805Z,0.70
2019-05-25T15:10:10.371Z,0.68
2019-05-25T15:12:39.232Z,0.60
2019-05-25T15:15:08.872Z,0.88
2019-05-25T15:17:38.052Z,1.10
2019-05-25T15:20:09.146Z,0.90
2019-05-25T15:25:10.375Z,1.10
2019-05-25T15:27:39.285Z,1.10
2019-05-25T15:30:10.711Z,0.98
2019-05-25T15:32:39.803Z,1.02
2019-05-25T15:35:09.992Z,0.60
2019-05-25T15:37:39.025Z,0.70
2019-05-25T15:40:11.848Z,0.50
2019-05-25T15:42:40.966Z,0.75
2019-05-25T15:45:11.682Z,0.60
2019-05-25T15:47:40.857Z,0.47
2019-05-25T15:50:13.951Z,0.60
2019-05-25T15:52:43.111Z,0.35
2019-05-25T15:55:12.446Z,0.40
2019-05-25T15:57:41.553Z,0.23
2019-05-25T16:00:13.040Z,0.50
2019-05-25T16:02:41.936Z,0.60
2019-05-25T16:05:11.095Z,0.50
2019-05-25T16:07:43.037Z,0.50
2019-05-25T16:10:12.186Z,0.40
2019-05-25T16:12:41.384Z,0.53
2019-05-25T16:15:10.481Z,0.50
2019-05-25T16:17:39.668Z,0.88
2019-05-25T16:20:08.720Z,1.40
2019-05-25T16:22:37.675Z,0.78
2019-05-25T16:25:09.938Z,0.90
2019-05-25T16:27:39.189Z,0.70
2019-05-25T16:30:08.995Z,0.70
2019-05-25T16:33:10.099Z,0.60
2019-05-25T16:35:08.859Z,0.65
2019-05-25T16:37:38.211Z,0.50
2019-05-25T16:40:07.991Z,0.90
2019-05-25T16:42:37.160Z,0.60
2019-05-25T16:45:07.316Z,0.62
2019-05-25T16:47:36.532Z,0.62
2019-05-25T16:50:09.183Z,0.70
2019-05-25T16:52:40.088Z,0.55
2019-05-25T16:55:09.366Z,0.85
2019-05-25T16:57:38.349Z,1.00
2019-05-25T17:00:08.464Z,1.30
2019-05-25T17:02:37.648Z,1.17
2019-05-25T17:05:07.006Z,1.10
2019-05-25T17:07:36.051Z,1.10
2019-05-25T17:10:06.062Z,1.10
2019-05-25T17:12:35.109Z,1.20
2019-05-25T17:15:07.983Z,0.90
2019-05-25T17:17:37.107Z,1.12
2019-05-25T17:20:06.891Z,0.88
2019-05-25T17:22:36.020Z,1.05
2019-05-25T17:25:09.145Z,1.00
2019-05-25T17:27:38.262Z,0.80
2019-05-25T17:30:09.066Z,1.00
2019-05-25T17:32:38.405Z,0.90
2019-05-25T17:35:08.400Z,1.00
2019-05-25T17:37:37.502Z,0.80
2019-05-25T17:40:07.661Z,1.35
2019-05-25T17:42:36.889Z,1.50
2019-05-25T17:45:06.913Z,3.77
2019-05-25T17:47:36.345Z,1.57
2019-05-25T17:50:07.555Z,0.90
2019-05-25T17:52:36.953Z,0.70
2019-05-25T17:55:07.990Z,0.90
2019-05-25T17:57:37.129Z,0.80
2019-05-25T18:00:08.687Z,0.70
2019-05-25T18:02:38.009Z,0.80
2019-05-25T18:05:08.089Z,0.78
2019-05-25T18:07:37.219Z,1.00
2019-05-25T18:10:09.764Z,1.17
2019-05-25T18:12:38.921Z,1.20
2019-05-25T18:15:09.794Z,1.15
2019-05-25T18:17:38.872Z,1.12
2019-05-25T18:20:10.667Z,1.10
2019-05-25T18:22:39.772Z,1.40
2019-05-25T18:25:09.123Z,1.20
2019-05-25T18:27:38.377Z,1.32
2019-05-25T18:30:09.055Z,1.42
2019-05-25T18:32:38.453Z,1.80
2019-05-25T18:35:08.157Z,1.70
2019-05-25T18:37:37.379Z,2.12
2019-05-25T18:40:07.992Z,1.77
2019-05-25T18:42:37.125Z,1.87
2019-05-25T18:45:10.119Z,1.70
2019-05-25T18:47:39.200Z,2.20
2019-05-25T18:50:10.099Z,2.05
2019-05-25T18:52:39.091Z,2.27
2019-05-25T18:55:09.045Z,2.22
2019-05-25T18:57:38.095Z,2.70
2019-05-25T19:00:08.630Z,2.83
2019-05-25T19:02:37.858Z,2.83
2019-05-25T19:05:08.024Z,3.47
2019-05-25T19:07:37.107Z,3.20
2019-05-25T19:10:08.553Z,3.92
2019-05-25T19:12:37.919Z,3.45
2019-05-25T19:15:09.050Z,3.62
2019-05-25T19:17:38.251Z,4.03
2019-05-25T19:20:07.983Z,3.67
2019-05-25T19:22:37.131Z,4.33
2019-05-25T19:25:08.197Z,4.12
2019-05-25T19:27:37.197Z,4.53
2019-05-25T19:30:08.079Z,4.65
2019-05-25T19:32:37.124Z,4.75
2019-05-25T19:35:07.213Z,4.37
2019-05-25T19:37:36.517Z,4.58
2019-05-25T19:40:09.171Z,4.83
2019-05-25T19:42:38.187Z,4.62
2019-05-25T19:45:08.681Z,4.85
2019-05-25T19:47:37.810Z,4.53
2019-05-25T19:50:08.009Z,4.65
2019-05-25T19:52:37.023Z,4.90
2019-05-25T19:55:07.594Z,5.03
2019-05-25T19:57:36.357Z,5.30
2019-05-25T20:00:08.697Z,4.65
2019-05-25T20:02:37.407Z,5.05
2019-05-25T20:05:16.929Z,4.75
2019-05-25T20:07:40.708Z,4.97
2019-05-25T20:10:10.026Z,5.10
2019-05-25T20:12:38.757Z,4.97
2019-05-25T20:15:08.426Z,4.67
2019-05-25T20:17:37.150Z,5.20
2019-05-25T20:20:06.824Z,5.45
2019-05-25T20:22:35.624Z,4.97
2019-05-25T20:25:06.026Z,5.25
2019-05-25T20:27:34.767Z,5.33
2019-05-25T20:30:05.237Z,5.33
2019-05-25T20:32:33.851Z,5.47
2019-05-25T20:35:02.470Z,5.62
2019-05-25T20:37:31.139Z,6.40
2019-05-25T20:39:59.880Z,5.92
2019-05-25T20:42:28.482Z,5.47
2019-05-25T20:44:57.215Z,4.97
2019-05-25T20:47:25.923Z,5.25
2019-05-25T20:49:54.690Z,5.55
2019-05-25T20:52:23.486Z,5.75
2019-05-25T20:54:52.096Z,6.28
2019-05-25T20:57:20.880Z,6.40
2019-05-25T20:59:49.502Z,6.55
2019-05-25T21:02:18.229Z,6.28
2019-05-25T21:04:46.855Z,6.25
2019-05-25T21:07:15.510Z,6.55
2019-05-25T21:09:44.023Z,6.70
2019-05-25T21:12:12.628Z,6.90
2019-05-25T21:14:41.177Z,6.90
2019-05-25T21:17:09.881Z,6.40
2019-05-25T21:19:38.549Z,7.50
2019-05-25T21:22:07.359Z,7.12
2019-05-25T21:24:35.888Z,7.37
2019-05-25T21:27:04.958Z,7.08
2019-05-25T21:29:33.682Z,6.45
2019-05-25T21:32:02.277Z,7.72
2019-05-25T21:34:30.964Z,7.95
2019-05-25T21:36:59.704Z,7.87
2019-05-25T21:39:28.181Z,7.78
2019-05-25T21:41:56.775Z,8.88
2019-05-25T21:44:25.556Z,8.78
2019-05-25T21:46:54.368Z,8.78
2019-05-25T21:49:22.955Z,9.13
2019-05-25T21:51:51.759Z,9.63
2019-05-25T21:54:20.420Z,10.35
2019-05-25T21:56:49.136Z,9.60
2019-05-25T21:59:17.745Z,10.08
2019-05-25T22:01:48.550Z,10.10
2019-05-25T22:04:17.277Z,10.65
2019-05-25T22:06:45.882Z,10.28
2019-05-25T22:09:14.678Z,10.80
2019-05-25T22:11:43.408Z,10.65
2019-05-25T22:14:12.009Z,11.43
2019-05-25T22:16:40.770Z,11.53
2019-05-25T22:19:09.422Z,11.63
2019-05-25T22:21:38.206Z,11.03
2019-05-25T22:24:06.890Z,12.63
2019-05-25T22:26:35.626Z,12.37
2019-05-25T22:29:04.429Z,12.68
2019-05-25T22:31:33.137Z,12.00
2019-05-25T22:34:01.736Z,12.07
2019-05-25T22:36:39.692Z,12.47
2019-05-25T22:39:00.671Z,11.75
2019-05-25T22:41:30.046Z,13.32
2019-05-25T22:43:58.666Z,12.53
2019-05-25T22:46:27.338Z,12.37
2019-05-25T22:48:56.005Z,11.70
2019-05-25T22:51:24.740Z,11.88
2019-05-25T22:53:53.407Z,12.20
2019-05-25T22:56:21.970Z,11.57
2019-05-25T22:58:50.744Z,11.28
2019-05-25T23:01:19.344Z,10.97
2019-05-25T23:03:47.886Z,11.00
2019-05-25T23:06:16.564Z,10.10
2019-05-25T23:08:45.230Z,11.57
2019-05-25T23:11:13.977Z,11.00
2019-05-25T23:13:42.713Z,11.48
2019-05-25T23:16:15.340Z,11.15
2019-05-25T23:18:43.842Z,10.98
2019-05-25T23:21:12.544Z,10.78
2019-05-25T23:23:41.196Z,10.75
2019-05-25T23:26:09.884Z,10.50
2019-05-25T23:28:38.625Z,11.10
2019-05-25T23:31:07.484Z,10.40
2019-05-25T23:33:36.146Z,10.78
2019-05-25T23:36:04.964Z,11.15
2019-05-25T23:38:33.682Z,11.68
2019-05-25T23:41:02.210Z,11.40
2019-05-25T23:43:30.982Z,10.75
2019-05-25T23:45:59.607Z,12.40
2019-05-25T23:48:28.156Z,11.88
2019-05-25T23:50:56.807Z,12.53
2019-05-25T23:53:25.474Z,12.85
2019-05-25T23:55:54.027Z,12.43
2019-05-25T23:58:22.900Z,14.23
